createdAt,value
2022-12-27T00:02:38.230Z,81.80
2022-12-27T00:05:22.270Z,82.57
2022-12-27T00:08:06.053Z,81.58
2022-12-27T00:10:49.856Z,81.81
2022-12-27T00:13:33.548Z,83.04
2022-12-27T00:16:19.380Z,81.81
2022-12-27T00:19:05.434Z,82.25
2022-12-27T00:21:49.885Z,83.02
2022-12-27T00:24:35.317Z,81.70
2022-12-27T00:27:19.068Z,82.80
2022-12-27T00:30:03.306Z,82.16
2022-12-27T00:32:48.324Z,81.65
2022-12-27T00:35:33.499Z,81.25
2022-12-27T00:38:17.294Z,80.63
2022-12-27T00:41:01.309Z,81.18
2022-12-27T00:43:45.741Z,80.84
2022-12-27T00:46:29.510Z,81.33
2022-12-27T00:49:13.428Z,81.42
2022-12-27T00:51:58.651Z,82.06
2022-12-27T00:54:42.512Z,81.37
2022-12-27T00:57:26.422Z,81.21
2022-12-27T01:00:12.395Z,81.07
2022-12-27T01:02:56.258Z,81.52
2022-12-27T01:05:40.432Z,81.28
2022-12-27T01:08:26.711Z,81.11
2022-12-27T01:11:11.504Z,80.35
2022-12-27T01:13:56.175Z,80.16
2022-12-27T01:16:40.817Z,80.85
2022-12-27T01:19:24.579Z,80.26
2022-12-27T01:22:09.459Z,81.16
2022-12-27T01:24:54.779Z,81.03
2022-12-27T01:27:38.725Z,81.83
2022-12-27T01:30:22.439Z,81.93
2022-12-27T01:33:06.283Z,81.82
2022-12-27T01:35:50.071Z,80.68
2022-12-27T01:38:33.741Z,81.34
2022-12-27T01:41:39.296Z,81.30
2022-12-27T01:44:54.895Z,80.27
2022-12-27T01:47:49.009Z,81.01
2022-12-27T01:50:37.166Z,81.27
2022-12-27T01:53:23.214Z,81.39
2022-12-27T01:56:11.402Z,81.34
2022-12-27T01:59:01.182Z,80.84
2022-12-27T02:01:48.203Z,82.06
2022-12-27T02:04:33.294Z,81.23
2022-12-27T02:07:17.289Z,80.82
2022-12-27T02:10:03.562Z,80.83
2022-12-27T02:12:47.488Z,80.74
2022-12-27T02:15:32.817Z,79.96
2022-12-27T02:18:17.290Z,80.58
2022-12-27T02:21:24.955Z,80.83
2022-12-27T02:24:42.029Z,82.07
2022-12-27T02:27:47.008Z,81.74
2022-12-27T02:30:35.799Z,81.57
2022-12-27T02:33:23.095Z,82.06
2022-12-27T02:36:11.256Z,80.85
2022-12-27T02:38:59.329Z,81.27
2022-12-27T02:42:01.875Z,80.55
2022-12-27T02:45:03.943Z,80.49
2022-12-27T02:48:07.971Z,80.44
2022-12-27T02:51:21.359Z,80.70
2022-12-27T02:54:19.511Z,81.23
2022-12-27T02:57:11.281Z,82.60
2022-12-27T03:00:26.384Z,81.48
2022-12-27T03:03:38.368Z,81.11
2022-12-27T03:06:41.163Z,80.43
2022-12-27T03:10:06.186Z,80.70
2022-12-27T03:13:14.509Z,81.19
2022-12-27T03:16:19.615Z,80.86
2022-12-27T03:19:12.289Z,81.00
2022-12-27T03:22:13.653Z,81.75
2022-12-27T03:25:16.165Z,81.18
2022-12-27T03:28:21.643Z,81.93
2022-12-27T03:31:27.978Z,81.33
2022-12-27T03:34:38.358Z,81.53
2022-12-27T03:37:44.132Z,81.78
2022-12-27T03:40:38.942Z,81.38
2022-12-27T03:43:21.937Z,81.04
2022-12-27T03:46:30.815Z,81.88
2022-12-27T03:49:24.724Z,82.72
2022-12-27T03:52:13.059Z,82.95
2022-12-27T03:54:57.808Z,82.26
2022-12-27T03:57:41.621Z,82.11
2022-12-27T04:00:25.478Z,81.34
2022-12-27T04:03:09.339Z,82.03
2022-12-27T04:05:54.724Z,82.76
2022-12-27T04:08:56.031Z,81.99
2022-12-27T04:11:57.238Z,81.98
2022-12-27T04:14:58.600Z,81.97
2022-12-27T04:17:59.951Z,81.43
2022-12-27T04:21:01.331Z,81.60
2022-12-27T04:24:03.802Z,81.78
2022-12-27T04:27:05.217Z,81.58
2022-12-27T04:30:06.612Z,81.74
2022-12-27T04:33:08.027Z,81.69
2022-12-27T04:35:51.980Z,81.29
2022-12-27T04:38:36.222Z,81.54
2022-12-27T04:41:38.918Z,81.59
2022-12-27T04:44:40.373Z,81.46
2022-12-27T04:47:42.958Z,81.26
2022-12-27T04:50:46.276Z,81.77
2022-12-27T04:53:49.274Z,81.13
2022-12-27T04:56:34.759Z,81.49
2022-12-27T04:59:35.799Z,81.93
2022-12-27T05:02:20.756Z,81.59
2022-12-27T05:05:04.916Z,82.21
2022-12-27T05:08:06.307Z,82.16
2022-12-27T05:11:07.766Z,82.55
2022-12-27T05:14:02.103Z,81.87
2022-12-27T05:16:46.488Z,81.55
2022-12-27T05:19:30.407Z,81.66
2022-12-27T05:22:31.886Z,81.64
2022-12-27T05:25:33.355Z,82.16
2022-12-27T05:28:17.403Z,81.81
2022-12-27T05:31:03.940Z,81.84
2022-12-27T05:33:48.057Z,82.50
2022-12-27T05:36:31.815Z,81.56
2022-12-27T05:39:15.599Z,81.20
2022-12-27T05:41:59.387Z,80.57
2022-12-27T05:44:43.183Z,82.94
2022-12-27T05:47:28.357Z,81.23
2022-12-27T05:50:12.702Z,81.39
2022-12-27T05:52:57.237Z,80.68
2022-12-27T05:55:41.493Z,80.14
2022-12-27T05:58:26.147Z,80.11
2022-12-27T06:01:11.827Z,80.61
2022-12-27T06:03:57.104Z,80.41
2022-12-27T06:06:40.911Z,81.10
2022-12-27T06:09:24.803Z,81.04
2022-12-27T06:12:08.864Z,81.50
2022-12-27T06:14:52.635Z,81.40
2022-12-27T06:17:36.322Z,80.61
2022-12-27T06:20:21.725Z,80.20
2022-12-27T06:23:05.616Z,79.75
2022-12-27T06:25:49.637Z,80.49
2022-12-27T06:28:33.660Z,80.76
2022-12-27T06:31:18.485Z,80.30
2022-12-27T06:34:02.376Z,80.36
2022-12-27T06:36:50.981Z,80.13
2022-12-27T06:39:34.762Z,80.42
2022-12-27T06:42:18.802Z,80.12
2022-12-27T06:45:03.573Z,79.43
2022-12-27T06:47:47.543Z,78.85
2022-12-27T06:50:31.533Z,80.14
2022-12-27T06:53:16.786Z,81.71
2022-12-27T06:56:05.057Z,81.73
2022-12-27T06:58:51.058Z,81.41
2022-12-27T07:01:35.019Z,80.33
2022-12-27T07:04:18.967Z,78.74
2022-12-27T07:07:02.741Z,78.53
2022-12-27T07:09:47.931Z,77.93
2022-12-27T07:12:36.382Z,77.37
2022-12-27T07:15:20.712Z,76.49
2022-12-27T07:18:04.840Z,75.44
2022-12-27T07:20:48.662Z,75.00
2022-12-27T07:23:32.589Z,75.83
2022-12-27T07:26:19.784Z,75.75
2022-12-27T07:29:03.994Z,74.25
2022-12-27T07:31:47.819Z,74.36
2022-12-27T07:34:31.579Z,72.54
2022-12-27T07:37:15.495Z,72.36
2022-12-27T07:39:59.363Z,72.09
2022-12-27T07:42:44.495Z,72.31
2022-12-27T07:45:28.251Z,71.96
2022-12-27T07:48:12.151Z,72.18
2022-12-27T07:50:56.794Z,71.97
2022-12-27T07:53:40.892Z,70.27
2022-12-27T07:56:26.913Z,71.17
2022-12-27T07:59:13.959Z,70.92
2022-12-27T08:02:07.304Z,71.14
2022-12-27T08:04:52.202Z,71.00
2022-12-27T08:07:36.253Z,70.82
2022-12-27T08:10:20.219Z,70.39
2022-12-27T08:13:04.153Z,69.88
2022-12-27T08:15:49.622Z,70.14
2022-12-27T08:18:33.361Z,70.04
2022-12-27T08:21:17.734Z,70.61
2022-12-27T08:24:01.515Z,70.75
2022-12-27T08:26:45.637Z,70.26
2022-12-27T08:29:29.472Z,69.69
2022-12-27T08:32:14.799Z,69.35
2022-12-27T08:35:12.071Z,68.93
2022-12-27T08:38:03.020Z,68.34
2022-12-27T08:40:47.525Z,68.26
2022-12-27T08:43:31.301Z,68.29
2022-12-27T08:46:15.304Z,66.88
2022-12-27T08:49:01.837Z,66.63
2022-12-27T08:51:45.722Z,65.06
2022-12-27T08:54:31.822Z,65.13
2022-12-27T08:57:15.559Z,65.50
2022-12-27T08:59:59.379Z,65.07
2022-12-27T09:02:43.407Z,65.13
2022-12-27T09:05:29.108Z,64.73
2022-12-27T09:08:13.134Z,65.67
2022-12-27T09:10:56.982Z,68.41
2022-12-27T09:13:41.083Z,65.20
2022-12-27T09:16:27.594Z,65.46
2022-12-27T09:19:11.497Z,66.02
2022-12-27T09:21:56.833Z,65.38
2022-12-27T09:24:40.580Z,65.06
2022-12-27T09:27:24.668Z,65.34
2022-12-27T09:30:09.765Z,65.27
2022-12-27T09:32:53.526Z,64.74
2022-12-27T09:35:38.728Z,64.36
2022-12-27T09:38:24.397Z,63.43
2022-12-27T09:41:37.701Z,62.42
2022-12-27T09:44:32.023Z,62.76
2022-12-27T09:47:20.547Z,62.31
2022-12-27T09:50:07.637Z,62.41
2022-12-27T09:53:01.270Z,62.13
2022-12-27T09:55:49.691Z,62.29
2022-12-27T09:58:42.179Z,61.72
2022-12-27T10:01:32.506Z,61.58
2022-12-27T10:04:19.003Z,61.56
2022-12-27T10:07:19.980Z,61.20
2022-12-27T10:10:10.132Z,61.43
2022-12-27T10:13:05.309Z,60.78
2022-12-27T10:15:58.776Z,60.69
2022-12-27T10:18:53.798Z,60.52
2022-12-27T10:21:40.734Z,59.73
2022-12-27T10:24:38.923Z,59.08
2022-12-27T10:27:25.622Z,59.32
2022-12-27T10:30:16.515Z,58.98
2022-12-27T10:33:01.205Z,58.43
2022-12-27T10:35:45.088Z,57.69
2022-12-27T10:38:34.696Z,57.49
2022-12-27T10:41:27.548Z,56.55
2022-12-27T10:44:13.123Z,57.10
2022-12-27T10:46:58.541Z,57.09
2022-12-27T10:49:44.425Z,56.69
2022-12-27T10:52:32.720Z,56.80
2022-12-27T10:55:34.365Z,56.53
2022-12-27T10:58:33.551Z,56.31
2022-12-27T11:01:25.404Z,56.12
2022-12-27T11:04:20.582Z,56.53
2022-12-27T11:07:19.473Z,60.51
2022-12-27T11:10:10.441Z,57.97
2022-12-27T11:12:59.809Z,57.46
2022-12-27T11:15:46.023Z,56.45
2022-12-27T11:18:34.872Z,55.54
2022-12-27T11:21:27.488Z,55.94
2022-12-27T11:24:16.717Z,55.36
2022-12-27T11:27:01.477Z,55.20
2022-12-27T11:29:47.223Z,55.09
2022-12-27T11:32:33.447Z,54.81
2022-12-27T11:35:19.687Z,54.61
2022-12-27T11:38:04.995Z,54.06
2022-12-27T11:40:59.861Z,54.61
2022-12-27T11:43:49.161Z,54.13
2022-12-27T11:46:39.625Z,53.38
2022-12-27T11:49:27.439Z,53.16
2022-12-27T11:52:40.235Z,53.29
2022-12-27T11:55:54.114Z,53.60
2022-12-27T11:58:57.043Z,53.09
2022-12-27T12:02:06.893Z,53.31
2022-12-27T12:05:37.656Z,53.31
2022-12-27T12:08:54.951Z,53.33
2022-12-27T12:11:56.365Z,53.16
2022-12-27T12:15:20.534Z,52.24
2022-12-27T12:18:23.575Z,51.62
2022-12-27T12:21:25.902Z,51.55
2022-12-27T12:24:50.477Z,52.28
2022-12-27T12:27:49.106Z,51.21
2022-12-27T12:31:01.703Z,51.28
2022-12-27T12:34:18.257Z,51.64
2022-12-27T12:37:18.982Z,51.59
2022-12-27T12:40:29.045Z,51.37
2022-12-27T12:43:31.043Z,51.66
2022-12-27T12:46:26.495Z,51.63
2022-12-27T12:49:28.983Z,52.59
2022-12-27T12:52:40.838Z,52.63
2022-12-27T12:55:38.511Z,54.17
2022-12-27T12:58:43.048Z,53.81
2022-12-27T13:01:38.378Z,53.28
2022-12-27T13:04:40.784Z,53.86
2022-12-27T13:07:40.975Z,52.88
2022-12-27T13:11:00.952Z,53.88
2022-12-27T13:14:01.962Z,53.68
2022-12-27T13:16:54.016Z,53.39
2022-12-27T13:19:58.717Z,53.28
2022-12-27T13:22:58.126Z,54.16
2022-12-27T13:25:47.788Z,54.72
2022-12-27T13:28:40.379Z,54.84
2022-12-27T13:31:35.569Z,54.59
2022-12-27T13:34:33.240Z,55.12
2022-12-27T13:37:27.888Z,54.99
2022-12-27T13:40:32.081Z,55.25
2022-12-27T13:43:30.967Z,55.33
2022-12-27T13:46:43.137Z,55.43
2022-12-27T13:50:00.358Z,55.71
2022-12-27T13:52:59.877Z,55.60
2022-12-27T13:55:55.655Z,55.37
2022-12-27T13:58:59.835Z,55.57
2022-12-27T14:02:02.566Z,55.92
2022-12-27T14:05:12.168Z,56.29
2022-12-27T14:08:04.778Z,56.13
2022-12-27T14:10:55.324Z,56.26
2022-12-27T14:13:45.736Z,57.04
2022-12-27T14:16:42.864Z,56.74
2022-12-27T14:19:49.532Z,57.58
2022-12-27T14:22:55.713Z,57.20
2022-12-27T14:26:21.158Z,57.41
2022-12-27T14:29:44.318Z,57.90
2022-12-27T14:33:07.965Z,58.03
2022-12-27T14:36:21.732Z,58.14
2022-12-27T14:39:36.076Z,58.31
2022-12-27T14:42:47.202Z,58.89
2022-12-27T14:46:02.567Z,59.15
2022-12-27T14:49:27.200Z,59.65
2022-12-27T14:52:43.480Z,59.29
2022-12-27T14:55:41.085Z,58.94
2022-12-27T14:58:50.724Z,59.41
2022-12-27T15:01:52.910Z,60.07
2022-12-27T15:04:52.236Z,60.31
2022-12-27T15:07:55.422Z,60.74
2022-12-27T15:10:56.107Z,61.30
2022-12-27T15:13:58.198Z,61.46
2022-12-27T15:16:53.815Z,61.62
2022-12-27T15:20:01.872Z,62.36
2022-12-27T15:23:00.389Z,62.89
2022-12-27T15:25:57.207Z,62.70
2022-12-27T15:28:59.583Z,63.30
2022-12-27T15:31:57.059Z,63.15
2022-12-27T15:35:16.487Z,63.84
2022-12-27T15:38:07.467Z,64.16
2022-12-27T15:41:14.344Z,64.46
2022-12-27T15:44:27.336Z,64.27
2022-12-27T15:47:41.262Z,64.70
2022-12-27T15:50:36.028Z,64.49
2022-12-27T15:53:44.596Z,65.33
2022-12-27T15:56:44.216Z,65.50
2022-12-27T15:59:48.165Z,65.97
2022-12-27T16:02:35.715Z,66.91
2022-12-27T16:05:47.581Z,66.55
2022-12-27T16:08:42.434Z,66.94
2022-12-27T16:12:03.639Z,67.43
2022-12-27T16:14:47.900Z,67.67
2022-12-27T16:17:40.827Z,68.49
2022-12-27T16:20:24.944Z,68.10
2022-12-27T16:23:12.655Z,69.47
2022-12-27T16:26:03.183Z,69.11
2022-12-27T16:28:56.500Z,69.58
2022-12-27T16:31:45.765Z,69.70
2022-12-27T16:34:31.541Z,69.67
2022-12-27T16:37:24.383Z,70.42
2022-12-27T16:40:20.693Z,69.94
2022-12-27T16:43:32.317Z,70.67
2022-12-27T16:46:29.739Z,70.96
2022-12-27T16:49:35.403Z,71.08
2022-12-27T16:52:51.308Z,71.56
2022-12-27T16:56:08.157Z,72.33
2022-12-27T16:58:52.621Z,72.02
2022-12-27T17:01:59.270Z,70.91
2022-12-27T17:05:01.062Z,72.25
2022-12-27T17:08:14.923Z,72.31
2022-12-27T17:11:02.349Z,72.68
2022-12-27T17:13:51.026Z,73.26
2022-12-27T17:16:43.344Z,72.44
2022-12-27T17:19:34.657Z,72.92
2022-12-27T17:22:19.387Z,73.45
2022-12-27T17:25:04.287Z,73.45
2022-12-27T17:28:13.317Z,73.57
2022-12-27T17:31:04.982Z,73.49
2022-12-27T17:34:02.495Z,73.93
2022-12-27T17:36:58.339Z,73.82
2022-12-27T17:40:07.779Z,74.01
2022-12-27T17:43:20.423Z,73.59
2022-12-27T17:46:22.082Z,74.20
2022-12-27T17:49:09.710Z,73.70
2022-12-27T17:52:12.873Z,73.77
2022-12-27T17:55:25.866Z,73.54
2022-12-27T17:58:12.482Z,73.75
2022-12-27T18:01:00.497Z,74.28
2022-12-27T18:03:48.571Z,74.46
2022-12-27T18:06:32.651Z,74.96
2022-12-27T18:09:32.221Z,74.69
2022-12-27T18:12:21.447Z,74.55
2022-12-27T18:15:08.566Z,75.16
2022-12-27T18:17:54.931Z,75.67
2022-12-27T18:20:40.785Z,75.68
2022-12-27T18:23:24.727Z,75.41
2022-12-27T18:26:13.597Z,75.51
2022-12-27T18:28:57.704Z,75.69
2022-12-27T18:31:49.998Z,75.49
2022-12-27T18:34:39.956Z,75.62
2022-12-27T18:37:26.116Z,74.48
2022-12-27T18:40:21.873Z,75.62
2022-12-27T18:43:16.657Z,75.14
2022-12-27T18:46:01.220Z,75.78
2022-12-27T18:48:45.404Z,75.36
2022-12-27T18:51:34.279Z,75.33
2022-12-27T18:54:35.187Z,75.77
2022-12-27T18:57:31.994Z,75.61
2022-12-27T19:00:21.746Z,75.36
2022-12-27T19:03:15.034Z,75.64
2022-12-27T19:06:06.232Z,74.49
2022-12-27T19:08:53.594Z,75.35
2022-12-27T19:11:38.623Z,75.32
2022-12-27T19:14:24.221Z,75.10
2022-12-27T19:17:18.605Z,74.79
2022-12-27T19:20:05.443Z,74.77
2022-12-27T19:22:51.895Z,75.06
2022-12-27T19:25:38.284Z,75.33
2022-12-27T19:28:27.924Z,74.65
2022-12-27T19:31:18.443Z,74.59
2022-12-27T19:34:09.706Z,73.51
2022-12-27T19:36:55.861Z,74.57
2022-12-27T19:39:41.913Z,74.14
2022-12-27T19:42:29.433Z,73.68
2022-12-27T19:45:15.936Z,74.00
2022-12-27T19:47:59.902Z,73.91
2022-12-27T19:50:49.149Z,72.92
2022-12-27T19:53:35.658Z,73.14
2022-12-27T19:56:19.649Z,72.33
2022-12-27T19:59:04.414Z,72.42
2022-12-27T20:01:49.117Z,72.05
2022-12-27T20:04:33.277Z,71.54
2022-12-27T20:07:22.767Z,71.68
2022-12-27T20:10:07.598Z,71.35
2022-12-27T20:12:51.578Z,70.99
2022-12-27T20:15:35.615Z,70.48
2022-12-27T20:18:19.931Z,69.83
2022-12-27T20:21:04.075Z,69.58
2022-12-27T20:23:50.079Z,69.30
2022-12-27T20:26:34.120Z,69.68
2022-12-27T20:29:18.165Z,69.98
2022-12-27T20:32:02.276Z,69.98
2022-12-27T20:34:46.959Z,70.93
2022-12-27T20:37:31.086Z,71.39
2022-12-27T20:40:16.736Z,70.95
2022-12-27T20:43:00.809Z,71.21
2022-12-27T20:45:44.872Z,71.13
2022-12-27T20:48:29.022Z,71.20
2022-12-27T20:51:14.963Z,70.62
2022-12-27T20:54:00.701Z,70.85
2022-12-27T20:56:45.982Z,71.75
2022-12-27T20:59:29.835Z,70.50
2022-12-27T21:02:14.312Z,71.48
2022-12-27T21:04:58.296Z,71.22
2022-12-27T21:07:42.117Z,71.68
2022-12-27T21:10:25.939Z,71.09
2022-12-27T21:13:11.213Z,71.18
2022-12-27T21:15:54.952Z,71.79
2022-12-27T21:18:38.854Z,71.16
2022-12-27T21:21:27.966Z,70.71
2022-12-27T21:24:12.799Z,70.46
2022-12-27T21:26:56.826Z,69.30
2022-12-27T21:29:42.105Z,68.79
2022-12-27T21:32:26.015Z,68.26
2022-12-27T21:35:10.923Z,67.15
2022-12-27T21:37:54.761Z,66.83
2022-12-27T21:40:38.537Z,66.64
2022-12-27T21:43:22.372Z,66.67
2022-12-27T21:46:11.189Z,66.25
2022-12-27T21:48:56.339Z,65.42
2022-12-27T21:51:41.682Z,65.33
2022-12-27T21:54:25.546Z,64.11
2022-12-27T21:57:09.520Z,63.96
2022-12-27T21:59:55.972Z,63.00
2022-12-27T22:02:41.593Z,62.71
2022-12-27T22:05:25.758Z,62.40
2022-12-27T22:08:09.836Z,62.02
2022-12-27T22:10:57.192Z,62.42
2022-12-27T22:13:40.986Z,61.54
2022-12-27T22:16:26.873Z,61.83
2022-12-27T22:19:13.701Z,61.66
2022-12-27T22:21:57.562Z,61.15
2022-12-27T22:24:41.379Z,61.19
2022-12-27T22:27:25.315Z,61.91
2022-12-27T22:30:09.882Z,62.02
2022-12-27T22:32:53.849Z,63.07
2022-12-27T22:35:39.163Z,62.47
2022-12-27T22:38:22.959Z,62.61
2022-12-27T22:41:08.360Z,63.47
2022-12-27T22:43:53.722Z,63.75
2022-12-27T22:49:41.533Z,65.77
2022-12-27T22:52:26.803Z,65.15
2022-12-27T22:55:11.525Z,64.56
2022-12-27T22:57:56.542Z,65.18
2022-12-27T23:00:40.681Z,65.60
2022-12-27T23:03:24.438Z,67.53
2022-12-27T23:06:08.799Z,67.20
2022-12-27T23:08:54.526Z,67.76
2022-12-27T23:11:41.622Z,67.68
2022-12-27T23:14:25.444Z,67.88
2022-12-27T23:17:09.265Z,66.77
2022-12-27T23:19:53.025Z,67.78
2022-12-27T23:22:36.858Z,68.20
2022-12-27T23:25:22.137Z,69.24
2022-12-27T23:28:06.439Z,69.88
2022-12-27T23:30:50.716Z,70.19
2022-12-27T23:33:34.815Z,69.96
2022-12-27T23:36:19.349Z,69.96
2022-12-27T23:39:03.258Z,70.49
2022-12-27T23:41:48.459Z,69.93
2022-12-27T23:44:32.985Z,70.24
2022-12-27T23:47:18.789Z,70.82
2022-12-27T23:50:02.705Z,69.71
2022-12-27T23:52:47.278Z,70.44
2022-12-27T23:55:31.020Z,71.28
2022-12-27T23:58:16.241Z,70.64
